Flood From: 22-02-2018 06:00 Until: 23-02-2018 06:00 warning for: Flood Level: Yellow info button

Although rather usual in this region, locally or potentially dangerous phenomena are expected. (such as local winds, summer thunderstorms, rising streams or high waves) Be aware and pay attention to the latest weather updates, especially if you carry out activities exposed to weather or close to a stream or shoreline. 


Meteo18 Weather Cam more information Meteo18 Weather Cam


Thunder radar more information blitzortung!


Rain radar more information rain snow radar


Visit our other weather sites:

Template documentation
and downloads

And another site



Weather Underground History page Text

Daily Summary for January 17, 2018 Units:  Both    English   Metric
« Previous Day
Next Day »
Daily Weekly Monthly Yearly Custom
  High: Low: Average:
Temperature: TemperatureC °F /  -17.8 °C 3.1 °F /  -16.1 °C 5.5 °F /  -14.7 °C
Dew Point: DewpointC °F /  -17.8 °C 0.9 °F /  -17.3 °C 2 °F /  -16.7 °C
Humidity: Humidity % 64 % 78 %
Wind Speed: WindSpeedKMH mph /  0 km/h - 16.6 mph /  26.7 km/h
Wind Gust: WindSpeedGustKMH mph /  0 km/h - -
Wind:- - West
Pressure: PressurehPa in /  0 hPa 1006.0 in /  34063.2 hPa -
Precipitation: 2.0 in /  50.8 mm    
Historical Graphs
 
 
Tabular Data for January 17, 2018
Time Temperature Dew Point Pressure Wind Wind Speed Wind Gust Humidity Rainfall Rate (Hourly)
TemperatureC °F /  -17.8 °C DewpointC °F /  -17.8 °C PressurehPa in /  0 hPa Calm     Humidity % HourlyPrecipMM in /  0 mm
00:01 7.5 °F /  -13.6 °C 4.6 °F /  -15.2 °C 1006.0 in /  34063.2 hPa West 25.9 mph /  41.7 km/h 29.0 mph /  46.7 km/h 82 % 0.0 in /  0 mm
00:07 7.4 °F /  -13.7 °C 4.5 °F /  -15.3 °C 1006.0 in /  34063.2 hPa West 24.1 mph /  38.8 km/h 37.0 mph /  59.5 km/h 82 % 0.0 in /  0 mm
00:17 7.5 °F /  -13.6 °C 4.3 °F /  -15.4 °C 1006.0 in /  34063.2 hPa South 11.1 mph /  17.9 km/h 45.1 mph /  72.6 km/h 80 % 0.0 in /  0 mm
00:27 7.2 °F /  -13.8 °C 4.0 °F /  -15.6 °C 1006.0 in /  34063.2 hPa West 27.4 mph /  44.1 km/h 38.6 mph /  62.1 km/h 80 % 0.0 in /  0 mm
00:33 6.9 °F /  -13.9 °C 3.9 °F /  -15.6 °C 1006.3 in /  34073.3 hPa West 28.8 mph /  46.3 km/h 40.2 mph /  64.7 km/h 81 % 0.0 in /  0 mm
00:39 6.7 °F /  -14.1 °C 3.8 °F /  -15.7 °C 1006.3 in /  34073.3 hPa WNW 20.9 mph /  33.6 km/h 33.8 mph /  54.4 km/h 82 % 0.0 in /  0 mm
00:45 6.7 °F /  -14.1 °C 4.0 °F /  -15.6 °C 1006.3 in /  34073.3 hPa West 35.2 mph /  56.6 km/h 35.4 mph /  57 km/h 83 % 0.0 in /  0 mm
00:51 6.8 °F /  -14 °C 3.9 °F /  -15.6 °C 1006.3 in /  34073.3 hPa WSW 27.4 mph /  44.1 km/h 35.4 mph /  57 km/h 82 % 0.0 in /  0 mm
01:03 6.9 °F /  -13.9 °C 4.2 °F /  -15.4 °C 1006.3 in /  34073.3 hPa West 19.5 mph /  31.4 km/h 37.0 mph /  59.5 km/h 83 % 0.0 in /  0 mm
01:09 6.8 °F /  -14 °C 4.3 °F /  -15.4 °C 1006.3 in /  34073.3 hPa West 24.1 mph /  38.8 km/h 30.6 mph /  49.2 km/h 84 % 0.0 in /  0 mm
01:15 6.9 °F /  -13.9 °C 4.2 °F /  -15.4 °C 1006.7 in /  34086.9 hPa WNW 24.1 mph /  38.8 km/h 35.4 mph /  57 km/h 83 % 0.0 in /  0 mm
01:27 7.2 °F /  -13.8 °C 3.6 °F /  -15.8 °C 1006.7 in /  34086.9 hPa WSW 14.3 mph /  23 km/h 30.6 mph /  49.2 km/h 78 % 0.0 in /  0 mm
01:33 7.1 °F /  -13.8 °C 3.7 °F /  -15.7 °C 1006.7 in /  34086.9 hPa WSW 13.0 mph /  20.9 km/h 22.5 mph /  36.2 km/h 79 % 0.0 in /  0 mm
01:39 7.1 °F /  -13.8 °C 3.9 °F /  -15.6 °C 1006.3 in /  34073.3 hPa WNW 22.7 mph /  36.5 km/h 27.4 mph /  44.1 km/h 80 % 0.0 in /  0 mm
01:45 7.0 °F /  -13.9 °C 4.0 °F /  -15.6 °C 1006.7 in /  34086.9 hPa West 14.3 mph /  23 km/h 20.9 mph /  33.6 km/h 81 % 0.0 in /  0 mm
01:57 7.0 °F /  -13.9 °C 3.8 °F /  -15.7 °C 1007.0 in /  34097 hPa WNW 17.7 mph /  28.5 km/h 30.6 mph /  49.2 km/h 80 % 0.0 in /  0 mm
02:03 7.1 °F /  -13.8 °C 3.7 °F /  -15.7 °C 1007.0 in /  34097 hPa West 25.9 mph /  41.7 km/h 29.0 mph /  46.7 km/h 79 % 0.0 in /  0 mm
02:09 7.1 °F /  -13.8 °C 3.2 °F /  -16 °C 1007.0 in /  34097 hPa West 33.8 mph /  54.4 km/h 38.6 mph /  62.1 km/h 76 % 0.0 in /  0 mm
02:15 7.1 °F /  -13.8 °C 3.3 °F /  -15.9 °C 1007.0 in /  34097 hPa WSW 20.9 mph /  33.6 km/h 30.6 mph /  49.2 km/h 77 % 0.0 in /  0 mm
02:23 7.1 °F /  -13.8 °C 2.8 °F /  -16.2 °C 1007.0 in /  34097 hPa West 19.5 mph /  31.4 km/h 43.4 mph /  69.8 km/h 74 % 0.0 in /  0 mm
02:29 7.1 °F /  -13.8 °C 2.8 °F /  -16.2 °C 1007.0 in /  34097 hPa West 17.7 mph /  28.5 km/h 38.6 mph /  62.1 km/h 74 % 0.0 in /  0 mm
02:35 6.9 °F /  -13.9 °C 2.6 °F /  -16.3 °C 1007.0 in /  34097 hPa WNW 14.3 mph /  23 km/h 32.2 mph /  51.8 km/h 74 % 0.0 in /  0 mm
02:41 6.9 °F /  -13.9 °C 2.6 °F /  -16.3 °C 1007.3 in /  34107.2 hPa WNW 22.7 mph /  36.5 km/h 35.4 mph /  57 km/h 74 % 0.0 in /  0 mm
02:47 6.9 °F /  -13.9 °C 2.8 °F /  -16.2 °C 1007.3 in /  34107.2 hPa West 24.1 mph /  38.8 km/h 33.8 mph /  54.4 km/h 75 % 0.0 in /  0 mm
02:53 6.9 °F /  -13.9 °C 2.6 °F /  -16.3 °C 1007.3 in /  34107.2 hPa WSW 22.7 mph /  36.5 km/h 32.2 mph /  51.8 km/h 74 % 0.0 in /  0 mm
02:59 6.9 °F /  -13.9 °C 2.6 °F /  -16.3 °C 1007.7 in /  34120.7 hPa West 22.7 mph /  36.5 km/h 30.6 mph /  49.2 km/h 74 % 0.0 in /  0 mm
03:05 6.8 °F /  -14 °C 2.5 °F /  -16.4 °C 1008.0 in /  34130.9 hPa WNW 4.7 mph /  7.6 km/h 29.0 mph /  46.7 km/h 74 % 0.0 in /  0 mm
03:11 5.7 °F /  -14.6 °C 2.7 °F /  -16.3 °C 1008.7 in /  34154.6 hPa WNW 19.5 mph /  31.4 km/h 33.8 mph /  54.4 km/h 81 % 0.0 in /  0 mm
03:23 3.8 °F /  -15.7 °C 1.7 °F /  -16.8 °C 1009.0 in /  34164.7 hPa WNW 28.8 mph /  46.3 km/h 64.4 mph /  103.6 km/h 86 % 1.0 in /  25.4 mm
03:29 3.4 °F /  -15.9 °C 1.8 °F /  -16.8 °C 1009.0 in /  34164.7 hPa WSW 19.5 mph /  31.4 km/h 32.2 mph /  51.8 km/h 89 % 1.5 in /  38.1 mm
03:35 3.1 °F /  -16.1 °C 1.6 °F /  -16.9 °C 1008.7 in /  34154.6 hPa WNW 19.5 mph /  31.4 km/h 33.8 mph /  54.4 km/h 90 % 1.5 in /  38.1 mm
03:41 3.1 °F /  -16.1 °C 1.5 °F /  -16.9 °C 1008.4 in /  34144.4 hPa West 13.0 mph /  20.9 km/h 30.6 mph /  49.2 km/h 89 % 1.8 in /  45.72 mm
03:51 3.3 °F /  -15.9 °C 1.5 °F /  -16.9 °C 1008.7 in /  34154.6 hPa WNW 20.9 mph /  33.6 km/h 37.0 mph /  59.5 km/h 88 % 1.8 in /  45.72 mm
03:57 3.5 °F /  -15.8 °C 1.7 °F /  -16.8 °C 1008.7 in /  34154.6 hPa WNW 27.4 mph /  44.1 km/h 37.0 mph /  59.5 km/h 88 % 1.8 in /  45.72 mm
04:03 3.5 °F /  -15.8 °C 1.9 °F /  -16.7 °C 1008.7 in /  34154.6 hPa WNW 16.3 mph /  26.2 km/h 33.8 mph /  54.4 km/h 89 % 2.0 in /  50.8 mm
04:09 3.4 °F /  -15.9 °C 1.8 °F /  -16.8 °C 1008.4 in /  34144.4 hPa WSW 14.3 mph /  23 km/h 35.4 mph /  57 km/h 89 % 2.0 in /  50.8 mm
04:17 3.5 °F /  -15.8 °C 1.9 °F /  -16.7 °C 1009.0 in /  34164.7 hPa WNW 19.5 mph /  31.4 km/h 29.0 mph /  46.7 km/h 89 % 1.5 in /  38.1 mm
04:23 3.7 °F /  -15.7 °C 1.9 °F /  -16.7 °C 1009.4 in /  34178.3 hPa West 24.1 mph /  38.8 km/h 27.4 mph /  44.1 km/h 88 % 1.0 in /  25.4 mm
04:29 3.9 °F /  -15.6 °C 1.8 °F /  -16.8 °C 1009.0 in /  34164.7 hPa WSW 24.1 mph /  38.8 km/h 29.0 mph /  46.7 km/h 86 % 0.5 in /  12.7 mm
04:37 4.0 °F /  -15.6 °C 1.5 °F /  -16.9 °C 1009.4 in /  34178.3 hPa West 19.5 mph /  31.4 km/h 35.4 mph /  57 km/h 84 % 0.3 in /  7.62 mm
04:43 3.9 °F /  -15.6 °C 1.3 °F /  -17.1 °C 1009.4 in /  34178.3 hPa West 20.9 mph /  33.6 km/h 30.6 mph /  49.2 km/h 83 % 0.3 in /  7.62 mm
04:49 3.9 °F /  -15.6 °C 1.3 °F /  -17.1 °C 1009.7 in /  34188.4 hPa West 16.3 mph /  26.2 km/h 35.4 mph /  57 km/h 83 % 0.3 in /  7.62 mm
04:57 3.8 °F /  -15.7 °C 1.3 °F /  -17.1 °C 1009.7 in /  34188.4 hPa WNW 17.7 mph /  28.5 km/h 24.1 mph /  38.8 km/h 84 % 0.3 in /  7.62 mm
05:03 3.9 °F /  -15.6 °C 1.4 °F /  -17 °C 1010.0 in /  34198.6 hPa West 6.4 mph /  10.3 km/h 27.4 mph /  44.1 km/h 84 % 0.0 in /  0 mm
05:09 3.9 °F /  -15.6 °C 1.6 °F /  -16.9 °C 1010.0 in /  34198.6 hPa WNW 9.7 mph /  15.6 km/h 29.0 mph /  46.7 km/h 85 % 0.0 in /  0 mm
05:15 3.9 °F /  -15.6 °C 1.6 °F /  -16.9 °C 1010.0 in /  34198.6 hPa West 24.1 mph /  38.8 km/h 33.8 mph /  54.4 km/h 85 % 0.0 in /  0 mm
05:25 4.1 °F /  -15.5 °C 1.8 °F /  -16.8 °C 1010.4 in /  34212.1 hPa West 14.3 mph /  23 km/h 24.1 mph /  38.8 km/h 85 % 0.0 in /  0 mm
05:31 4.2 °F /  -15.4 °C 1.9 °F /  -16.7 °C 1010.4 in /  34212.1 hPa WNW 27.4 mph /  44.1 km/h 27.4 mph /  44.1 km/h 85 % 0.0 in /  0 mm
05:41 4.2 °F /  -15.4 °C 1.7 °F /  -16.8 °C 1010.0 in /  34198.6 hPa West 17.7 mph /  28.5 km/h 27.4 mph /  44.1 km/h 84 % 0.0 in /  0 mm
05:47 4.2 °F /  -15.4 °C 1.9 °F /  -16.7 °C 1010.7 in /  34222.3 hPa WSW 14.3 mph /  23 km/h 32.2 mph /  51.8 km/h 85 % 0.0 in /  0 mm
05:53 4.1 °F /  -15.5 °C 2.0 °F /  -16.7 °C 1010.7 in /  34222.3 hPa WSW 27.4 mph /  44.1 km/h 29.0 mph /  46.7 km/h 86 % 0.0 in /  0 mm
05:59 4.1 °F /  -15.5 °C 2.0 °F /  -16.7 °C 1010.7 in /  34222.3 hPa WNW 16.3 mph /  26.2 km/h 22.5 mph /  36.2 km/h 86 % 0.0 in /  0 mm
06:05 4.1 °F /  -15.5 °C 2.0 °F /  -16.7 °C 1010.7 in /  34222.3 hPa West 28.8 mph /  46.3 km/h 29.0 mph /  46.7 km/h 86 % 0.0 in /  0 mm
06:11 4.2 °F /  -15.4 °C 1.9 °F /  -16.7 °C 1010.7 in /  34222.3 hPa WSW 16.3 mph /  26.2 km/h 30.6 mph /  49.2 km/h 85 % 0.0 in /  0 mm
06:21 4.2 °F /  -15.4 °C 1.9 °F /  -16.7 °C 1010.7 in /  34222.3 hPa WSW 9.7 mph /  15.6 km/h 25.7 mph /  41.4 km/h 85 % 0.0 in /  0 mm
06:27 4.3 °F /  -15.4 °C 2.0 °F /  -16.7 °C 1010.7 in /  34222.3 hPa West 13.0 mph /  20.9 km/h 25.7 mph /  41.4 km/h 85 % 0.0 in /  0 mm
06:33 4.2 °F /  -15.4 °C 1.9 °F /  -16.7 °C 1010.7 in /  34222.3 hPa West 20.9 mph /  33.6 km/h 33.8 mph /  54.4 km/h 85 % 0.0 in /  0 mm
06:39 4.2 °F /  -15.4 °C 1.9 °F /  -16.7 °C 1010.7 in /  34222.3 hPa WSW 17.7 mph /  28.5 km/h 32.2 mph /  51.8 km/h 85 % 0.0 in /  0 mm
06:45 4.2 °F /  -15.4 °C 1.7 °F /  -16.8 °C 1011.1 in /  34235.8 hPa West 32.0 mph /  51.5 km/h 32.2 mph /  51.8 km/h 84 % 0.0 in /  0 mm
06:51 4.2 °F /  -15.4 °C 1.7 °F /  -16.8 °C 1011.1 in /  34235.8 hPa WNW 14.3 mph /  23 km/h 33.8 mph /  54.4 km/h 84 % 0.0 in /  0 mm
06:57 4.2 °F /  -15.4 °C 1.6 °F /  -16.9 °C 1011.4 in /  34246 hPa West 22.7 mph /  36.5 km/h 25.7 mph /  41.4 km/h 83 % 0.0 in /  0 mm
07:03 4.2 °F /  -15.4 °C 1.4 °F /  -17 °C 1011.4 in /  34246 hPa WSW 17.7 mph /  28.5 km/h 29.0 mph /  46.7 km/h 82 % 0.0 in /  0 mm
07:09 4.3 °F /  -15.4 °C 1.5 °F /  -16.9 °C 1011.7 in /  34256.2 hPa WNW 13.0 mph /  20.9 km/h 27.4 mph /  44.1 km/h 82 % 0.0 in /  0 mm
07:15 4.4 °F /  -15.3 °C 1.4 °F /  -17 °C 1011.7 in /  34256.2 hPa West 9.7 mph /  15.6 km/h 25.7 mph /  41.4 km/h 81 % 0.0 in /  0 mm
07:27 4.4 °F /  -15.3 °C 1.4 °F /  -17 °C 1011.7 in /  34256.2 hPa West 19.5 mph /  31.4 km/h 27.4 mph /  44.1 km/h 81 % 0.0 in /  0 mm
07:35 4.5 °F /  -15.3 °C 1.4 °F /  -17 °C 1012.1 in /  34269.7 hPa West 19.5 mph /  31.4 km/h 27.4 mph /  44.1 km/h 80 % 0.0 in /  0 mm
07:41 4.4 °F /  -15.3 °C 1.4 °F /  -17 °C 1012.4 in /  34279.9 hPa West 22.7 mph /  36.5 km/h 27.4 mph /  44.1 km/h 81 % 0.0 in /  0 mm
07:47 4.5 °F /  -15.3 °C 1.4 °F /  -17 °C 1012.1 in /  34269.7 hPa WSW 17.7 mph /  28.5 km/h 32.2 mph /  51.8 km/h 80 % 0.0 in /  0 mm
07:53 4.5 °F /  -15.3 °C 1.5 °F /  -16.9 °C 1012.4 in /  34279.9 hPa WSW 25.9 mph /  41.7 km/h 30.6 mph /  49.2 km/h 81 % 0.0 in /  0 mm
08:03 4.4 °F /  -15.3 °C 1.4 °F /  -17 °C 1012.4 in /  34279.9 hPa West 20.9 mph /  33.6 km/h 32.2 mph /  51.8 km/h 81 % 0.0 in /  0 mm
08:09 4.5 °F /  -15.3 °C 1.4 °F /  -17 °C 1012.8 in /  34293.4 hPa West 11.1 mph /  17.9 km/h 22.5 mph /  36.2 km/h 80 % 0.0 in /  0 mm
08:17 4.6 °F /  -15.2 °C 1.3 °F /  -17.1 °C 1012.8 in /  34293.4 hPa West 28.8 mph /  46.3 km/h 29.0 mph /  46.7 km/h 79 % 0.0 in /  0 mm
08:23 4.6 °F /  -15.2 °C 1.3 °F /  -17.1 °C 1012.8 in /  34293.4 hPa West 20.9 mph /  33.6 km/h 33.8 mph /  54.4 km/h 79 % 0.0 in /  0 mm
08:29 4.6 °F /  -15.2 °C 1.3 °F /  -17.1 °C 1013.1 in /  34303.6 hPa West 22.7 mph /  36.5 km/h 27.4 mph /  44.1 km/h 79 % 0.0 in /  0 mm
08:35 4.6 °F /  -15.2 °C 1.3 °F /  -17.1 °C 1012.8 in /  34293.4 hPa West 24.1 mph /  38.8 km/h 32.2 mph /  51.8 km/h 79 % 0.0 in /  0 mm
08:41 4.6 °F /  -15.2 °C 1.3 °F /  -17.1 °C 1013.1 in /  34303.6 hPa West 13.0 mph /  20.9 km/h 30.6 mph /  49.2 km/h 79 % 0.0 in /  0 mm
08:53 4.6 °F /  -15.2 °C 1.3 °F /  -17.1 °C 1013.4 in /  34313.7 hPa West 13.0 mph /  20.9 km/h 22.5 mph /  36.2 km/h 79 % 0.0 in /  0 mm
08:59 4.7 °F /  -15.2 °C 1.2 °F /  -17.1 °C 1013.8 in /  34327.3 hPa WNW 19.5 mph /  31.4 km/h 37.0 mph /  59.5 km/h 78 % 0.0 in /  0 mm
09:09 4.8 °F /  -15.1 °C 1.3 °F /  -17.1 °C 1014.1 in /  34337.4 hPa West 20.9 mph /  33.6 km/h 25.7 mph /  41.4 km/h 78 % 0.0 in /  0 mm
09:15 4.7 °F /  -15.2 °C 1.4 °F /  -17 °C 1014.4 in /  34347.6 hPa West 17.7 mph /  28.5 km/h 17.7 mph /  28.5 km/h 79 % 0.0 in /  0 mm
09:21 4.6 °F /  -15.2 °C 1.4 °F /  -17 °C 1014.4 in /  34347.6 hPa West 22.7 mph /  36.5 km/h 30.6 mph /  49.2 km/h 80 % 0.0 in /  0 mm
09:27 4.7 °F /  -15.2 °C 1.4 °F /  -17 °C 1014.4 in /  34347.6 hPa West 13.0 mph /  20.9 km/h 27.4 mph /  44.1 km/h 79 % 0.0 in /  0 mm
09:34 4.6 °F /  -15.2 °C 1.4 °F /  -17 °C 1014.8 in /  34361.1 hPa WNW 14.3 mph /  23 km/h 30.6 mph /  49.2 km/h 80 % 0.0 in /  0 mm
09:40 4.5 °F /  -15.3 °C 1.5 °F /  -16.9 °C 1014.8 in /  34361.1 hPa West 11.1 mph /  17.9 km/h 17.7 mph /  28.5 km/h 81 % 0.0 in /  0 mm
09:46 4.5 °F /  -15.3 °C 1.5 °F /  -16.9 °C 1015.1 in /  34371.3 hPa WNW 16.3 mph /  26.2 km/h 24.1 mph /  38.8 km/h 81 % 0.0 in /  0 mm
09:52 4.6 °F /  -15.2 °C 1.4 °F /  -17 °C 1015.1 in /  34371.3 hPa West 19.5 mph /  31.4 km/h 32.2 mph /  51.8 km/h 80 % 0.0 in /  0 mm
09:58 4.6 °F /  -15.2 °C 1.4 °F /  -17 °C 1015.5 in /  34384.8 hPa West 17.7 mph /  28.5 km/h 25.7 mph /  41.4 km/h 80 % 0.0 in /  0 mm
10:04 4.5 °F /  -15.3 °C 1.5 °F /  -16.9 °C 1015.5 in /  34384.8 hPa West 27.4 mph /  44.1 km/h 30.6 mph /  49.2 km/h 81 % 0.0 in /  0 mm
10:10 4.6 °F /  -15.2 °C 1.6 °F /  -16.9 °C 1015.5 in /  34384.8 hPa WNW 11.1 mph /  17.9 km/h 35.4 mph /  57 km/h 81 % 0.0 in /  0 mm
10:16 4.7 °F /  -15.2 °C 1.5 °F /  -16.9 °C 1015.8 in /  34395 hPa West 14.3 mph /  23 km/h 30.6 mph /  49.2 km/h 80 % 0.0 in /  0 mm
10:28 4.8 °F /  -15.1 °C 1.6 °F /  -16.9 °C 1015.8 in /  34395 hPa West 13.0 mph /  20.9 km/h 27.4 mph /  44.1 km/h 80 % 0.0 in /  0 mm
10:34 4.9 °F /  -15.1 °C 1.6 °F /  -16.9 °C 1016.1 in /  34405.1 hPa WSW 24.1 mph /  38.8 km/h 33.8 mph /  54.4 km/h 79 % 0.0 in /  0 mm
10:40 4.9 °F /  -15.1 °C 1.6 °F /  -16.9 °C 1016.1 in /  34405.1 hPa WNW 19.5 mph /  31.4 km/h 38.6 mph /  62.1 km/h 79 % 0.0 in /  0 mm
10:46 4.9 °F /  -15.1 °C 1.6 °F /  -16.9 °C 1016.1 in /  34405.1 hPa WNW 25.9 mph /  41.7 km/h 37.0 mph /  59.5 km/h 79 % 0.0 in /  0 mm
10:52 4.9 °F /  -15.1 °C 1.7 °F /  -16.8 °C 1016.1 in /  34405.1 hPa West 16.3 mph /  26.2 km/h 35.4 mph /  57 km/h 80 % 0.0 in /  0 mm
11:00 5.0 °F /  -15 °C 1.8 °F /  -16.8 °C 1016.5 in /  34418.7 hPa West 22.7 mph /  36.5 km/h 25.7 mph /  41.4 km/h 80 % 0.0 in /  0 mm
11:06 5.1 °F /  -14.9 °C 1.9 °F /  -16.7 °C 1016.8 in /  34428.8 hPa WNW 14.3 mph /  23 km/h 29.0 mph /  46.7 km/h 80 % 0.0 in /  0 mm
11:12 4.8 °F /  -15.1 °C 2.0 °F /  -16.7 °C 1016.8 in /  34428.8 hPa WSW 24.1 mph /  38.8 km/h 35.4 mph /  57 km/h 82 % 0.0 in /  0 mm
11:18 4.7 °F /  -15.2 °C 2.1 °F /  -16.6 °C 1016.8 in /  34428.8 hPa WNW 22.7 mph /  36.5 km/h 22.7 mph /  36.5 km/h 83 % 0.0 in /  0 mm
11:24 4.7 °F /  -15.2 °C 2.2 °F /  -16.6 °C 1017.2 in /  34442.4 hPa West 14.3 mph /  23 km/h 20.9 mph /  33.6 km/h 84 % 0.0 in /  0 mm
11:32 4.9 °F /  -15.1 °C 2.1 °F /  -16.6 °C 1017.2 in /  34442.4 hPa WSW 19.5 mph /  31.4 km/h 27.4 mph /  44.1 km/h 82 % 0.0 in /  0 mm
11:38 5.1 °F /  -14.9 °C 2.3 °F /  -16.5 °C 1017.5 in /  34452.6 hPa SW 14.3 mph /  23 km/h 20.9 mph /  33.6 km/h 82 % 0.0 in /  0 mm
11:46 5.2 °F /  -14.9 °C 2.4 °F /  -16.4 °C 1017.5 in /  34452.6 hPa West 19.5 mph /  31.4 km/h 27.4 mph /  44.1 km/h 82 % 0.0 in /  0 mm
11:52 5.2 °F /  -14.9 °C 2.5 °F /  -16.4 °C 1017.5 in /  34452.6 hPa West 24.1 mph /  38.8 km/h 25.7 mph /  41.4 km/h 83 % 0.0 in /  0 mm
11:58 5.1 °F /  -14.9 °C 2.6 °F /  -16.3 °C 1017.8 in /  34462.7 hPa West 14.3 mph /  23 km/h 22.5 mph /  36.2 km/h 84 % 0.0 in /  0 mm
12:08 5.2 °F /  -14.9 °C 2.2 °F /  -16.6 °C 1017.5 in /  34452.6 hPa West 17.7 mph /  28.5 km/h 27.4 mph /  44.1 km/h 81 % 0.0 in /  0 mm
12:14 5.4 °F /  -14.8 °C 2.4 °F /  -16.4 °C 1017.5 in /  34452.6 hPa West 7.9 mph /  12.7 km/h 27.4 mph /  44.1 km/h 81 % 0.0 in /  0 mm
12:20 5.6 °F /  -14.7 °C 2.1 °F /  -16.6 °C 1017.5 in /  34452.6 hPa WNW 25.9 mph /  41.7 km/h 33.8 mph /  54.4 km/h 78 % 0.0 in /  0 mm
12:26 5.7 °F /  -14.6 °C 2.2 °F /  -16.6 °C 1017.5 in /  34452.6 hPa WNW 9.7 mph /  15.6 km/h 29.0 mph /  46.7 km/h 78 % 0.0 in /  0 mm
12:32 5.8 °F /  -14.6 °C 2.1 °F /  -16.6 °C 1017.8 in /  34462.7 hPa WNW 22.7 mph /  36.5 km/h 35.4 mph /  57 km/h 77 % 0.0 in /  0 mm
12:40 5.7 °F /  -14.6 °C 1.6 °F /  -16.9 °C 1017.8 in /  34462.7 hPa West 16.3 mph /  26.2 km/h 29.0 mph /  46.7 km/h 75 % 0.0 in /  0 mm
12:50 6.2 °F /  -14.3 °C 2.3 °F /  -16.5 °C 1017.8 in /  34462.7 hPa WNW 16.3 mph /  26.2 km/h 20.9 mph /  33.6 km/h 76 % 0.0 in /  0 mm
12:56 6.2 °F /  -14.3 °C 1.5 °F /  -16.9 °C 1017.8 in /  34462.7 hPa WNW 17.7 mph /  28.5 km/h 22.5 mph /  36.2 km/h 72 % 0.0 in /  0 mm
13:02 6.2 °F /  -14.3 °C 1.5 °F /  -16.9 °C 1017.8 in /  34462.7 hPa West 17.7 mph /  28.5 km/h 29.0 mph /  46.7 km/h 72 % 0.0 in /  0 mm
13:08 6.2 °F /  -14.3 °C 1.5 °F /  -16.9 °C 1017.8 in /  34462.7 hPa WNW 17.7 mph /  28.5 km/h 22.5 mph /  36.2 km/h 72 % 0.0 in /  0 mm
13:18 6.6 °F /  -14.1 °C 1.9 °F /  -16.7 °C 1017.8 in /  34462.7 hPa West 19.5 mph /  31.4 km/h 30.6 mph /  49.2 km/h 72 % 0.0 in /  0 mm
13:24 6.8 °F /  -14 °C 1.9 °F /  -16.7 °C 1017.8 in /  34462.7 hPa WNW 16.3 mph /  26.2 km/h 29.0 mph /  46.7 km/h 71 % 0.0 in /  0 mm
13:36 6.9 °F /  -13.9 °C 1.6 °F /  -16.9 °C 1017.8 in /  34462.7 hPa WNW 22.7 mph /  36.5 km/h 32.2 mph /  51.8 km/h 69 % 0.0 in /  0 mm
13:42 6.9 °F /  -13.9 °C 1.4 °F /  -17 °C 1017.8 in /  34462.7 hPa NW 25.9 mph /  41.7 km/h 43.4 mph /  69.8 km/h 68 % 0.0 in /  0 mm
13:48 6.8 °F /  -14 °C 1.5 °F /  -16.9 °C 1017.8 in /  34462.7 hPa WNW 25.9 mph /  41.7 km/h 30.6 mph /  49.2 km/h 69 % 0.0 in /  0 mm
13:54 6.8 °F /  -14 °C 0.9 °F /  -17.3 °C 1017.8 in /  34462.7 hPa NW 16.3 mph /  26.2 km/h 35.4 mph /  57 km/h 66 % 0.0 in /  0 mm
14:00 7.1 °F /  -13.8 °C 1.8 °F /  -16.8 °C 1017.8 in /  34462.7 hPa WNW 13.0 mph /  20.9 km/h 20.9 mph /  33.6 km/h 69 % 0.0 in /  0 mm
14:06 7.1 °F /  -13.8 °C 2.0 °F /  -16.7 °C 1017.8 in /  34462.7 hPa WNW 14.3 mph /  23 km/h 30.6 mph /  49.2 km/h 70 % 0.0 in /  0 mm
14:12 6.9 °F /  -13.9 °C 1.6 °F /  -16.9 °C 1017.8 in /  34462.7 hPa West 22.7 mph /  36.5 km/h 29.0 mph /  46.7 km/h 69 % 0.0 in /  0 mm
14:18 6.9 °F /  -13.9 °C 1.2 °F /  -17.1 °C 1017.8 in /  34462.7 hPa NW 30.6 mph /  49.2 km/h 30.6 mph /  49.2 km/h 67 % 0.0 in /  0 mm
14:30 6.8 °F /  -14 °C 0.9 °F /  -17.3 °C 1017.8 in /  34462.7 hPa WNW 22.7 mph /  36.5 km/h 29.0 mph /  46.7 km/h 66 % 0.0 in /  0 mm
14:38 6.8 °F /  -14 °C 1.1 °F /  -17.2 °C 1017.8 in /  34462.7 hPa WNW 17.7 mph /  28.5 km/h 33.8 mph /  54.4 km/h 67 % 0.0 in /  0 mm
14:44 6.9 °F /  -13.9 °C 1.0 °F /  -17.2 °C 1017.8 in /  34462.7 hPa WNW 35.2 mph /  56.6 km/h 35.4 mph /  57 km/h 66 % 0.0 in /  0 mm
14:50 6.8 °F /  -14 °C 1.3 °F /  -17.1 °C 1017.8 in /  34462.7 hPa West 13.0 mph /  20.9 km/h 20.9 mph /  33.6 km/h 68 % 0.0 in /  0 mm
14:56 6.9 °F /  -13.9 °C 1.0 °F /  -17.2 °C 1017.8 in /  34462.7 hPa WNW 16.3 mph /  26.2 km/h 25.7 mph /  41.4 km/h 66 % 0.0 in /  0 mm
15:02 7.1 °F /  -13.8 °C 1.6 °F /  -16.9 °C 1018.2 in /  34476.3 hPa West 11.1 mph /  17.9 km/h 22.5 mph /  36.2 km/h 68 % 0.0 in /  0 mm
15:08 7.1 °F /  -13.8 °C 1.4 °F /  -17 °C 1018.2 in /  34476.3 hPa WNW 17.7 mph /  28.5 km/h 20.9 mph /  33.6 km/h 67 % 0.0 in /  0 mm
15:14 7.1 °F /  -13.8 °C 1.2 °F /  -17.1 °C 1018.2 in /  34476.3 hPa West 25.9 mph /  41.7 km/h 25.9 mph /  41.7 km/h 66 % 0.0 in /  0 mm
15:20 7.4 °F /  -13.7 °C 1.0 °F /  -17.2 °C 1018.2 in /  34476.3 hPa WSW 30.6 mph /  49.2 km/h 33.8 mph /  54.4 km/h 64 % 0.0 in /  0 mm
15:26 7.3 °F /  -13.7 °C 1.2 °F /  -17.1 °C 1018.2 in /  34476.3 hPa WNW 14.3 mph /  23 km/h 29.0 mph /  46.7 km/h 65 % 0.0 in /  0 mm
15:32 7.3 °F /  -13.7 °C 0.9 °F /  -17.3 °C 1018.2 in /  34476.3 hPa WNW 19.5 mph /  31.4 km/h 29.0 mph /  46.7 km/h 64 % 0.0 in /  0 mm
15:38 7.3 °F /  -13.7 °C 1.2 °F /  -17.1 °C 1018.2 in /  34476.3 hPa West 19.5 mph /  31.4 km/h 27.4 mph /  44.1 km/h 65 % 0.0 in /  0 mm
15:46 7.3 °F /  -13.7 °C 1.2 °F /  -17.1 °C 1018.2 in /  34476.3 hPa WSW 16.3 mph /  26.2 km/h 32.2 mph /  51.8 km/h 65 % 0.0 in /  0 mm
15:52 7.3 °F /  -13.7 °C 0.9 °F /  -17.3 °C 1018.2 in /  34476.3 hPa WNW 24.1 mph /  38.8 km/h 33.8 mph /  54.4 km/h 64 % 0.0 in /  0 mm
15:58 7.3 °F /  -13.7 °C 1.2 °F /  -17.1 °C 1018.5 in /  34486.4 hPa West 20.9 mph /  33.6 km/h 24.1 mph /  38.8 km/h 65 % 0.0 in /  0 mm
16:04 7.3 °F /  -13.7 °C 1.2 °F /  -17.1 °C 1018.5 in /  34486.4 hPa WNW 14.3 mph /  23 km/h 29.0 mph /  46.7 km/h 65 % 0.0 in /  0 mm
16:10 7.3 °F /  -13.7 °C 1.4 °F /  -17 °C 1018.5 in /  34486.4 hPa West 13.0 mph /  20.9 km/h 24.1 mph /  38.8 km/h 66 % 0.0 in /  0 mm
16:16 7.2 °F /  -13.8 °C 1.1 °F /  -17.2 °C 1018.5 in /  34486.4 hPa WSW 24.1 mph /  38.8 km/h 30.6 mph /  49.2 km/h 65 % 0.0 in /  0 mm
16:22 7.0 °F /  -13.9 °C 1.3 °F /  -17.1 °C 1018.8 in /  34496.6 hPa West 11.1 mph /  17.9 km/h 20.9 mph /  33.6 km/h 67 % 0.0 in /  0 mm
16:28 6.9 °F /  -13.9 °C 1.2 °F /  -17.1 °C 1018.8 in /  34496.6 hPa NW 9.7 mph /  15.6 km/h 24.1 mph /  38.8 km/h 67 % 0.0 in /  0 mm
16:34 6.8 °F /  -14 °C 1.1 °F /  -17.2 °C 1018.8 in /  34496.6 hPa WNW 7.9 mph /  12.7 km/h 27.4 mph /  44.1 km/h 67 % 0.0 in /  0 mm
16:40 6.9 °F /  -13.9 °C 1.2 °F /  -17.1 °C 1018.8 in /  34496.6 hPa West 14.3 mph /  23 km/h 25.7 mph /  41.4 km/h 67 % 0.0 in /  0 mm
16:46 6.9 °F /  -13.9 °C 1.4 °F /  -17 °C 1018.8 in /  34496.6 hPa WNW 9.7 mph /  15.6 km/h 20.9 mph /  33.6 km/h 68 % 0.0 in /  0 mm
16:52 6.8 °F /  -14 °C 1.3 °F /  -17.1 °C 1018.8 in /  34496.6 hPa WSW 11.1 mph /  17.9 km/h 19.3 mph /  31.1 km/h 68 % 0.0 in /  0 mm
16:58 6.7 °F /  -14.1 °C 1.6 °F /  -16.9 °C 1018.8 in /  34496.6 hPa West 9.7 mph /  15.6 km/h 11.3 mph /  18.2 km/h 70 % 0.0 in /  0 mm
17:04 6.6 °F /  -14.1 °C 1.7 °F /  -16.8 °C 1018.8 in /  34496.6 hPa WSW 14.3 mph /  23 km/h 17.7 mph /  28.5 km/h 71 % 0.0 in /  0 mm
17:10 6.4 °F /  -14.2 °C 1.5 °F /  -16.9 °C 1019.2 in /  34510.1 hPa West 11.1 mph /  17.9 km/h 14.5 mph /  23.3 km/h 71 % 0.0 in /  0 mm
17:16 6.4 °F /  -14.2 °C 1.5 °F /  -16.9 °C 1019.2 in /  34510.1 hPa West 11.1 mph /  17.9 km/h 14.5 mph /  23.3 km/h 71 % 0.0 in /  0 mm
17:25 6.2 °F /  -14.3 °C 1.3 °F /  -17.1 °C 1019.2 in /  34510.1 hPa WSW 14.3 mph /  23 km/h 17.7 mph /  28.5 km/h 71 % 0.0 in /  0 mm
17:31 6.2 °F /  -14.3 °C 1.3 °F /  -17.1 °C 1019.2 in /  34510.1 hPa West 9.7 mph /  15.6 km/h 17.7 mph /  28.5 km/h 71 % 0.0 in /  0 mm
17:38 6.2 °F /  -14.3 °C 1.3 °F /  -17.1 °C 1019.2 in /  34510.1 hPa WSW 11.1 mph /  17.9 km/h 16.1 mph /  25.9 km/h 71 % 0.0 in /  0 mm
17:46 6.2 °F /  -14.3 °C 1.3 °F /  -17.1 °C 1019.5 in /  34520.3 hPa West 7.9 mph /  12.7 km/h 17.7 mph /  28.5 km/h 71 % 0.0 in /  0 mm
17:52 6.2 °F /  -14.3 °C 1.3 °F /  -17.1 °C 1019.5 in /  34520.3 hPa WSW 9.7 mph /  15.6 km/h 16.1 mph /  25.9 km/h 71 % 0.0 in /  0 mm
17:58 6.2 °F /  -14.3 °C 1.3 °F /  -17.1 °C 1019.5 in /  34520.3 hPa West 6.4 mph /  10.3 km/h 12.9 mph /  20.8 km/h 71 % 0.0 in /  0 mm
18:04 6.3 °F /  -14.3 °C 1.4 °F /  -17 °C 1019.5 in /  34520.3 hPa SW 9.7 mph /  15.6 km/h 12.9 mph /  20.8 km/h 71 % 0.0 in /  0 mm
18:12 6.3 °F /  -14.3 °C 1.6 °F /  -16.9 °C 1019.5 in /  34520.3 hPa SW 9.7 mph /  15.6 km/h 12.9 mph /  20.8 km/h 72 % 0.0 in /  0 mm
18:20 6.2 °F /  -14.3 °C 1.7 °F /  -16.8 °C 1019.5 in /  34520.3 hPa SW 11.1 mph /  17.9 km/h 11.3 mph /  18.2 km/h 73 % 0.0 in /  0 mm
18:26 6.2 °F /  -14.3 °C 1.9 °F /  -16.7 °C 1019.5 in /  34520.3 hPa WSW 9.7 mph /  15.6 km/h 17.7 mph /  28.5 km/h 74 % 0.0 in /  0 mm
18:32 6.1 °F /  -14.4 °C 1.8 °F /  -16.8 °C 1019.2 in /  34510.1 hPa WSW 7.9 mph /  12.7 km/h 16.1 mph /  25.9 km/h 74 % 0.0 in /  0 mm
18:40 5.9 °F /  -14.5 °C 1.8 °F /  -16.8 °C 1019.5 in /  34520.3 hPa SW 4.7 mph /  7.6 km/h 16.1 mph /  25.9 km/h 75 % 0.0 in /  0 mm
18:46 5.9 °F /  -14.5 °C 1.8 °F /  -16.8 °C 1019.2 in /  34510.1 hPa SW 6.4 mph /  10.3 km/h 17.7 mph /  28.5 km/h 75 % 0.0 in /  0 mm
18:52 5.8 °F /  -14.6 °C 1.9 °F /  -16.7 °C 1019.5 in /  34520.3 hPa SW 6.4 mph /  10.3 km/h 14.5 mph /  23.3 km/h 76 % 0.0 in /  0 mm
18:58 5.7 °F /  -14.6 °C 2.0 °F /  -16.7 °C 1019.5 in /  34520.3 hPa SW 6.4 mph /  10.3 km/h 12.9 mph /  20.8 km/h 77 % 0.0 in /  0 mm
19:04 5.6 °F /  -14.7 °C 2.1 °F /  -16.6 °C 1019.5 in /  34520.3 hPa SW 9.7 mph /  15.6 km/h 11.3 mph /  18.2 km/h 78 % 0.0 in /  0 mm
19:10 5.5 °F /  -14.7 °C 2.0 °F /  -16.7 °C 1019.5 in /  34520.3 hPa SW 1.4 mph /  2.3 km/h 11.3 mph /  18.2 km/h 78 % 0.0 in /  0 mm
19:16 5.3 °F /  -14.8 °C 2.0 °F /  -16.7 °C 1019.5 in /  34520.3 hPa SSW 11.1 mph /  17.9 km/h 14.5 mph /  23.3 km/h 79 % 0.0 in /  0 mm
19:22 5.3 °F /  -14.8 °C 2.0 °F /  -16.7 °C 1019.5 in /  34520.3 hPa SW 9.7 mph /  15.6 km/h 14.5 mph /  23.3 km/h 79 % 0.0 in /  0 mm
19:28 5.2 °F /  -14.9 °C 1.9 °F /  -16.7 °C 1019.5 in /  34520.3 hPa SW 14.3 mph /  23 km/h 14.5 mph /  23.3 km/h 79 % 0.0 in /  0 mm
19:34 5.2 °F /  -14.9 °C 1.9 °F /  -16.7 °C 1019.5 in /  34520.3 hPa WSW 7.9 mph /  12.7 km/h 16.1 mph /  25.9 km/h 79 % 0.0 in /  0 mm
19:40 5.2 °F /  -14.9 °C 2.0 °F /  -16.7 °C 1019.5 in /  34520.3 hPa WSW 7.9 mph /  12.7 km/h 19.3 mph /  31.1 km/h 80 % 0.0 in /  0 mm
19:46 5.2 °F /  -14.9 °C 2.0 °F /  -16.7 °C 1019.5 in /  34520.3 hPa SSW 9.7 mph /  15.6 km/h 19.3 mph /  31.1 km/h 80 % 0.0 in /  0 mm
19:52 5.1 °F /  -14.9 °C 1.9 °F /  -16.7 °C 1019.5 in /  34520.3 hPa SW 11.1 mph /  17.9 km/h 17.7 mph /  28.5 km/h 80 % 0.0 in /  0 mm
20:02 5.1 °F /  -14.9 °C 1.9 °F /  -16.7 °C 1019.5 in /  34520.3 hPa WNW 7.9 mph /  12.7 km/h 17.7 mph /  28.5 km/h 80 % 0.0 in /  0 mm
20:08 4.9 °F /  -15.1 °C 1.9 °F /  -16.7 °C 1019.5 in /  34520.3 hPa SW 9.7 mph /  15.6 km/h 12.9 mph /  20.8 km/h 81 % 0.0 in /  0 mm
20:14 4.9 °F /  -15.1 °C 1.9 °F /  -16.7 °C 1019.5 in /  34520.3 hPa WSW 6.4 mph /  10.3 km/h 19.3 mph /  31.1 km/h 81 % 0.0 in /  0 mm
20:20 5.1 °F /  -14.9 °C 1.9 °F /  -16.7 °C 1019.5 in /  34520.3 hPa WSW 13.0 mph /  20.9 km/h 20.9 mph /  33.6 km/h 80 % 0.0 in /  0 mm
20:27 5.2 °F /  -14.9 °C 1.9 °F /  -16.7 °C 1019.5 in /  34520.3 hPa WSW 7.9 mph /  12.7 km/h 20.9 mph /  33.6 km/h 79 % 0.0 in /  0 mm
20:32 5.4 °F /  -14.8 °C 2.1 °F /  -16.6 °C 1019.5 in /  34520.3 hPa West 13.0 mph /  20.9 km/h 24.1 mph /  38.8 km/h 79 % 0.0 in /  0 mm
20:41 5.4 °F /  -14.8 °C 2.1 °F /  -16.6 °C 1019.5 in /  34520.3 hPa West 9.7 mph /  15.6 km/h 20.9 mph /  33.6 km/h 79 % 0.0 in /  0 mm
20:47 5.3 °F /  -14.8 °C 2.0 °F /  -16.7 °C 1019.5 in /  34520.3 hPa WSW 7.9 mph /  12.7 km/h 19.3 mph /  31.1 km/h 79 % 0.0 in /  0 mm
20:53 5.2 °F /  -14.9 °C 1.9 °F /  -16.7 °C 1019.5 in /  34520.3 hPa South 9.7 mph /  15.6 km/h 17.7 mph /  28.5 km/h 79 % 0.0 in /  0 mm
20:59 5.2 °F /  -14.9 °C 2.0 °F /  -16.7 °C 1019.5 in /  34520.3 hPa WSW 16.3 mph /  26.2 km/h 19.3 mph /  31.1 km/h 80 % 0.0 in /  0 mm
21:05 5.0 °F /  -15 °C 1.8 °F /  -16.8 °C 1019.5 in /  34520.3 hPa WSW 6.4 mph /  10.3 km/h 16.1 mph /  25.9 km/h 80 % 0.0 in /  0 mm
21:11 4.9 °F /  -15.1 °C 1.9 °F /  -16.7 °C 1019.5 in /  34520.3 hPa WSW 24.1 mph /  38.8 km/h 24.1 mph /  38.8 km/h 81 % 0.0 in /  0 mm
21:17 4.9 °F /  -15.1 °C 1.9 °F /  -16.7 °C 1019.2 in /  34510.1 hPa SW 13.0 mph /  20.9 km/h 27.4 mph /  44.1 km/h 81 % 0.0 in /  0 mm
21:23 4.9 °F /  -15.1 °C 1.9 °F /  -16.7 °C 1019.5 in /  34520.3 hPa SW 11.1 mph /  17.9 km/h 22.5 mph /  36.2 km/h 81 % 0.0 in /  0 mm
21:29 4.9 °F /  -15.1 °C 2.1 °F /  -16.6 °C 1019.2 in /  34510.1 hPa SW 14.3 mph /  23 km/h 25.7 mph /  41.4 km/h 82 % 0.0 in /  0 mm
21:37 4.7 °F /  -15.2 °C 2.1 °F /  -16.6 °C 1019.2 in /  34510.1 hPa WSW 16.3 mph /  26.2 km/h 25.7 mph /  41.4 km/h 83 % 0.0 in /  0 mm
21:43 4.7 °F /  -15.2 °C 2.1 °F /  -16.6 °C 1018.8 in /  34496.6 hPa WSW 13.0 mph /  20.9 km/h 19.3 mph /  31.1 km/h 83 % 0.0 in /  0 mm
21:49 4.8 °F /  -15.1 °C 2.2 °F /  -16.6 °C 1018.8 in /  34496.6 hPa West 11.1 mph /  17.9 km/h 25.7 mph /  41.4 km/h 83 % 0.0 in /  0 mm
21:55 4.7 °F /  -15.2 °C 2.2 °F /  -16.6 °C 1018.8 in /  34496.6 hPa SW 7.9 mph /  12.7 km/h 20.9 mph /  33.6 km/h 84 % 0.0 in /  0 mm
22:01 4.7 °F /  -15.2 °C 2.2 °F /  -16.6 °C 1018.8 in /  34496.6 hPa WSW 19.5 mph /  31.4 km/h 24.1 mph /  38.8 km/h 84 % 0.0 in /  0 mm
22:07 4.8 °F /  -15.1 °C 2.3 °F /  -16.5 °C 1019.5 in /  34520.3 hPa West 17.7 mph /  28.5 km/h 32.2 mph /  51.8 km/h 84 % 0.0 in /  0 mm
22:13 4.8 °F /  -15.1 °C 2.3 °F /  -16.5 °C 1019.5 in /  34520.3 hPa WSW 13.0 mph /  20.9 km/h 20.9 mph /  33.6 km/h 84 % 0.0 in /  0 mm
22:19 4.8 °F /  -15.1 °C 2.3 °F /  -16.5 °C 1019.5 in /  34520.3 hPa WSW 9.7 mph /  15.6 km/h 19.3 mph /  31.1 km/h 84 % 0.0 in /  0 mm
22:21 4.9 °F /  -15.1 °C 2.4 °F /  -16.4 °C 1019.5 in /  34520.3 hPa WSW 14.3 mph /  23 km/h 25.7 mph /  41.4 km/h 84 % 0.0 in /  0 mm
22:27 5.0 °F /  -15 °C 2.5 °F /  -16.4 °C 1019.9 in /  34533.8 hPa SW 9.7 mph /  15.6 km/h 24.1 mph /  38.8 km/h 84 % 0.0 in /  0 mm
22:33 5.1 °F /  -14.9 °C 2.6 °F /  -16.3 °C 1019.9 in /  34533.8 hPa WSW 16.3 mph /  26.2 km/h 19.3 mph /  31.1 km/h 84 % 0.0 in /  0 mm
22:37 5.1 °F /  -14.9 °C 2.6 °F /  -16.3 °C 1019.5 in /  34520.3 hPa WSW 19.5 mph /  31.4 km/h 22.5 mph /  36.2 km/h 84 % 0.0 in /  0 mm
22:39 5.1 °F /  -14.9 °C 2.6 °F /  -16.3 °C 1019.9 in /  34533.8 hPa WSW 13.0 mph /  20.9 km/h 17.7 mph /  28.5 km/h 84 % 0.0 in /  0 mm
22:41 5.1 °F /  -14.9 °C 2.6 °F /  -16.3 °C 1019.5 in /  34520.3 hPa West 13.0 mph /  20.9 km/h 24.1 mph /  38.8 km/h 84 % 0.0 in /  0 mm
22:47 5.1 °F /  -14.9 °C 2.8 °F /  -16.2 °C 1019.2 in /  34510.1 hPa WSW 19.5 mph /  31.4 km/h 19.5 mph /  31.4 km/h 85 % 0.0 in /  0 mm
22:53 5.2 °F /  -14.9 °C 2.9 °F /  -16.2 °C 1019.2 in /  34510.1 hPa WSW 17.7 mph /  28.5 km/h 27.4 mph /  44.1 km/h 85 % 0.0 in /  0 mm
23:05 5.1 °F /  -14.9 °C 2.8 °F /  -16.2 °C 1018.8 in /  34496.6 hPa SW 7.9 mph /  12.7 km/h 17.7 mph /  28.5 km/h 85 % 0.0 in /  0 mm
23:11 4.9 °F /  -15.1 °C 2.8 °F /  -16.2 °C 1018.8 in /  34496.6 hPa West 13.0 mph /  20.9 km/h 24.1 mph /  38.8 km/h 86 % 0.0 in /  0 mm
23:13 4.9 °F /  -15.1 °C 2.8 °F /  -16.2 °C 1018.8 in /  34496.6 hPa SW 20.9 mph /  33.6 km/h 24.1 mph /  38.8 km/h 86 % 0.0 in /  0 mm
23:19 5.0 °F /  -15 °C 2.9 °F /  -16.2 °C 1018.8 in /  34496.6 hPa SSW 14.3 mph /  23 km/h 24.1 mph /  38.8 km/h 86 % 0.0 in /  0 mm
23:25 5.1 °F /  -14.9 °C 3.1 °F /  -16.1 °C 1018.8 in /  34496.6 hPa West 19.5 mph /  31.4 km/h 29.0 mph /  46.7 km/h 87 % 0.0 in /  0 mm
23:27 5.1 °F /  -14.9 °C 3.1 °F /  -16.1 °C 1018.8 in /  34496.6 hPa SW 13.0 mph /  20.9 km/h 25.7 mph /  41.4 km/h 87 % 0.0 in /  0 mm
23:33 5.2 °F /  -14.9 °C 3.2 °F /  -16 °C 1018.8 in /  34496.6 hPa SW 17.7 mph /  28.5 km/h 17.7 mph /  28.5 km/h 87 % 0.0 in /  0 mm
23:39 5.2 °F /  -14.9 °C 3.2 °F /  -16 °C 1018.8 in /  34496.6 hPa West 16.3 mph /  26.2 km/h 20.9 mph /  33.6 km/h 87 % 0.0 in /  0 mm
23:45 5.2 °F /  -14.9 °C 3.2 °F /  -16 °C 1018.8 in /  34496.6 hPa SW 13.0 mph /  20.9 km/h 22.5 mph /  36.2 km/h 87 % 0.0 in /  0 mm
23:51 5.3 °F /  -14.8 °C 3.5 °F /  -15.8 °C 1018.8 in /  34496.6 hPa SW 6.4 mph /  10.3 km/h 22.5 mph /  36.2 km/h 88 % 0.0 in /  0 mm
23:57 5.3 °F /  -14.8 °C 3.5 °F /  -15.8 °C 1018.8 in /  34496.6 hPa WSW 14.3 mph /  23 km/h 24.1 mph /  38.8 km/h 88 % 0.0 in /  0 mm
Meteo18
Compliments of Weather Underground - 4 mb

Script developed by  Jim McMurry - jmcmurry@mwt.net Adapted for the template by  Wim van der Kuil - Leuven-Template.eu

You find our weather info also at:

European Weather Network

Weather Underground

Equipment we use:

Weather-station
Davis Vue

Weather-program
Meteobridge

Weather-server
Raspberry PI 2 B+

Provider
1 and 1

Davis Vue

Meteobridge

Raspberry PI 2 B+

1 and 1